Marquette, MI

7:51 AM EST on February 27, 2015 (GMT -0500)
Harvey, MI | Change Station
CLOSE
Current Station
Personal Weather Station
Location: Marquette, MI
Elevation: 725 ft
Nearby Weather Stations
Active Advisory: Special Statement

Elev 725 ft 46.47 °N, 87.37 °W | Updated 8 minutes ago

Clear
Clear
-8.8 °F
Feels Like -9 °F
N
0.0
Wind Variable Wind from South
Gusts 1.0 mph

Today
High -- | Low -- °F
--% Chance of Precip.
Yesterday
High -- | Low -- °F
Precip. -- in
7:32 AM 6:32 PM
Waxing Gibbous, 68% visible
Pressure 30.33 in
Visibility 10.0 miles
Clouds Clear
Windchill -9 °F
Dew Point -14 °F
Humidity 78%
Rainfall 0.00 in
Snow Depth Not available.
UV 0.0 out of 12
Pollen .30 out of 12
Air Quality Not available.
Flu Activity Not available.
METAR KSAW 271145Z 29004KT 10SM SKC M26/M29 A3033

More Conditions Fewer Conditions

Pressure 30.33 in
Visibility 10.0 miles
Clouds Clear
Windchill -9 °F
Dew Point -14 °F
Humidity 78%
Rainfall 0.00 in
Snow Depth Not available.
UV 0.0 out of 12
Pollen .30 out of 12
Air Quality Not available.
Flu Activity Not available.
METAR KSAW 271145Z 29004KT 10SM SKC M26/M29 A3033

More Conditions Fewer Conditions

10-Day Weather Forecast

Almanac

Astronomy

Feb. 27, 2015 Rise Set
Actual Time
Civil Twilight
Nautical Twilight
Astronomical Twilight
Moon
Length of Visible Light
Length of Day
Tomorrow will be .
, % of the Moon is Illuminated

Today's Extremes

State Highs State Lows

Community

WunderPhotos

Upload Photos

1,800,667 photos uploaded!

WunderBlogs® & News

Nearby

Air Quality

  Air Quality AQ Index Pollutant
Not available.

Snow Depth

Station Depth Elevation

Earthquake Activity

City Distance Mag. Time & Date
Minimum magnitude displayed is 2.5.

Coastal Water Temperatures

Place Temperature

Nearby Weather Stations

Special Statement
Statement as of 4:08 AM EST on February 27, 2015

... Very cold again this morning...

The combination of temperatures bottoming out in the 5 below to
15 below zero range at most places and west to northwest winds up to
5 to 10 mph will cause wind chills as low as 15 below to 25 below
zero through mid morning.

If you go outside this morning... cover up all exposed skin to reduce
the potential for frostbite.


Kc


408 am EST Fri Feb 27 2015

... Very cold again this morning...

The combination of temperatures bottoming out in the 5 below to
15 below zero range at most places and west to northwest winds up to
5 to 10 mph will cause wind chills as low as 15 below to 25 below
zero through mid morning.

If you go outside this morning... cover up all exposed skin to reduce
the potential for frostbite.


Kc